createdAt,value
2019-01-13T00:00:45.945Z,1.60
2019-01-13T00:03:15.326Z,1.60
2019-01-13T00:05:44.799Z,1.60
2019-01-13T00:08:14.191Z,1.50
2019-01-13T00:10:43.580Z,1.50
2019-01-13T00:13:13.031Z,1.50
2019-01-13T00:15:42.355Z,1.50
2019-01-13T00:18:11.807Z,1.50
2019-01-13T00:20:41.363Z,1.50
2019-01-13T00:23:10.678Z,1.50
2019-01-13T00:25:40.178Z,1.50
2019-01-13T00:28:09.526Z,1.50
2019-01-13T00:30:38.907Z,1.50
2019-01-13T00:33:08.315Z,1.50
2019-01-13T00:35:37.855Z,1.50
2019-01-13T00:38:07.244Z,1.40
2019-01-13T00:40:36.560Z,1.40
2019-01-13T00:43:06.156Z,1.40
2019-01-13T00:45:36.126Z,1.40
2019-01-13T00:48:05.657Z,1.40
2019-01-13T00:50:36.811Z,1.40
2019-01-13T00:53:06.118Z,1.40
2019-01-13T00:55:36.410Z,1.40
2019-01-13T00:58:05.917Z,1.40
2019-01-13T01:00:35.302Z,1.40
2019-01-13T01:03:04.952Z,1.40
2019-01-13T01:05:34.332Z,1.40
2019-01-13T01:08:03.863Z,1.40
2019-01-13T01:10:33.268Z,1.40
2019-01-13T01:13:02.716Z,1.40
2019-01-13T01:15:31.914Z,1.40
2019-01-13T01:18:01.219Z,1.40
2019-01-13T01:20:30.502Z,1.40
2019-01-13T01:22:59.928Z,1.40
2019-01-13T01:25:29.219Z,1.40
2019-01-13T01:27:58.910Z,1.40
2019-01-13T01:30:33.435Z,1.40
2019-01-13T01:32:59.622Z,1.40
2019-01-13T01:35:28.979Z,1.40
2019-01-13T01:37:58.343Z,1.40
2019-01-13T01:40:27.808Z,1.40
2019-01-13T01:42:57.193Z,1.40
2019-01-13T01:45:26.511Z,1.30
2019-01-13T01:47:55.859Z,1.30
2019-01-13T01:50:25.083Z,1.30
2019-01-13T01:52:54.597Z,1.30
2019-01-13T01:55:23.935Z,1.30
2019-01-13T01:57:53.371Z,1.30
2019-01-13T02:00:24.518Z,1.30
2019-01-13T02:02:53.788Z,1.30
2019-01-13T02:05:23.088Z,1.30
2019-01-13T02:07:52.751Z,1.30
2019-01-13T02:10:22.484Z,1.30
2019-01-13T02:12:52.403Z,1.30
2019-01-13T02:15:24.339Z,1.30
2019-01-13T02:17:53.928Z,1.30
2019-01-13T02:20:23.918Z,1.30
2019-01-13T02:22:53.229Z,1.30
2019-01-13T02:25:24.999Z,1.30
2019-01-13T02:27:54.299Z,1.30
2019-01-13T02:30:24.951Z,1.30
2019-01-13T02:32:54.592Z,1.30
2019-01-13T02:35:23.936Z,1.30
2019-01-13T02:37:53.646Z,1.30
2019-01-13T02:40:23.340Z,1.30
2019-01-13T02:42:52.702Z,1.30
2019-01-13T02:45:29.313Z,1.30
2019-01-13T02:47:58.668Z,1.20
2019-01-13T02:50:28.042Z,1.20
2019-01-13T02:52:57.370Z,1.20
2019-01-13T02:55:26.689Z,1.20
2019-01-13T02:57:56.139Z,1.20
2019-01-13T03:00:27.512Z,1.20
2019-01-13T03:02:56.979Z,1.20
2019-01-13T03:05:26.473Z,1.10
2019-01-13T03:07:56.085Z,1.20
2019-01-13T03:10:26.428Z,1.20
2019-01-13T03:12:56.287Z,1.10
2019-01-13T03:15:26.999Z,1.10
2019-01-13T03:17:56.655Z,1.10
2019-01-13T03:20:26.093Z,1.10
2019-01-13T03:22:55.685Z,1.10
2019-01-13T03:25:25.344Z,1.10
2019-01-13T03:27:54.719Z,1.10
2019-01-13T03:30:25.184Z,1.10
2019-01-13T03:32:54.945Z,1.10
2019-01-13T03:35:24.880Z,1.10
2019-01-13T03:37:54.260Z,1.00
2019-01-13T03:40:25.130Z,1.00
2019-01-13T03:42:55.774Z,1.10
2019-01-13T03:45:25.578Z,1.10
2019-01-13T03:47:54.908Z,1.10
2019-01-13T03:50:24.994Z,1.10
2019-01-13T03:52:54.363Z,1.00
2019-01-13T03:55:25.134Z,1.00
2019-01-13T03:57:54.498Z,1.00
2019-01-13T04:00:25.871Z,1.00
2019-01-13T04:02:55.430Z,1.00
2019-01-13T04:05:24.822Z,1.00
2019-01-13T04:07:54.530Z,1.00
2019-01-13T04:10:23.862Z,1.00
2019-01-13T04:12:53.334Z,1.00
2019-01-13T04:15:51.100Z,1.00
2019-01-13T04:18:20.591Z,1.00
2019-01-13T04:20:49.938Z,1.00
2019-01-13T04:23:19.351Z,1.00
2019-01-13T04:25:48.664Z,1.00
2019-01-13T04:28:17.962Z,1.00
2019-01-13T04:30:47.355Z,1.00
2019-01-13T04:33:16.632Z,1.00
2019-01-13T04:35:45.989Z,1.10
2019-01-13T04:38:15.511Z,1.10
2019-01-13T04:40:44.838Z,1.10
2019-01-13T04:43:14.283Z,1.10
2019-01-13T04:45:43.595Z,1.10
2019-01-13T04:48:12.929Z,1.10
2019-01-13T04:50:42.358Z,1.10
2019-01-13T04:53:11.735Z,1.10
2019-01-13T04:55:41.140Z,1.10
2019-01-13T04:58:10.489Z,1.10
2019-01-13T05:00:39.736Z,1.10
2019-01-13T05:03:09.127Z,1.10
2019-01-13T05:05:38.495Z,1.10
2019-01-13T05:08:07.786Z,1.10
2019-01-13T05:10:37.091Z,1.10
2019-01-13T05:13:06.800Z,1.10
2019-01-13T05:15:36.319Z,1.10
2019-01-13T05:18:05.601Z,1.10
2019-01-13T05:20:35.220Z,1.10
2019-01-13T05:23:04.592Z,1.20
2019-01-13T05:25:34.025Z,1.20
2019-01-13T05:28:03.602Z,1.20
2019-01-13T05:30:32.903Z,1.20
2019-01-13T05:33:02.355Z,1.20
2019-01-13T05:35:31.719Z,1.20
2019-01-13T05:38:01.155Z,1.20
2019-01-13T05:40:30.578Z,1.20
2019-01-13T05:42:59.962Z,1.20
2019-01-13T05:45:29.280Z,1.20
2019-01-13T05:47:58.810Z,1.20
2019-01-13T05:50:28.358Z,1.20
2019-01-13T05:52:57.712Z,1.20
2019-01-13T05:55:27.278Z,1.20
2019-01-13T05:57:56.751Z,1.20
2019-01-13T06:00:31.974Z,1.20
2019-01-13T06:03:01.299Z,1.20
2019-01-13T06:05:30.818Z,1.20
2019-01-13T06:08:00.112Z,1.20
2019-01-13T06:10:29.487Z,1.20
2019-01-13T06:12:58.958Z,1.20
2019-01-13T06:15:28.282Z,1.20
2019-01-13T06:17:57.627Z,1.20
2019-01-13T06:20:26.921Z,1.20
2019-01-13T06:22:56.232Z,1.20
2019-01-13T06:25:25.547Z,1.20
2019-01-13T06:27:56.806Z,1.20
2019-01-13T06:30:26.059Z,1.20
2019-01-13T06:32:55.551Z,1.20
2019-01-13T06:35:24.892Z,1.20
2019-01-13T06:37:54.391Z,1.20
2019-01-13T06:40:23.887Z,1.20
2019-01-13T06:42:53.242Z,1.20
2019-01-13T06:45:24.683Z,1.20
2019-01-13T06:47:54.021Z,1.20
2019-01-13T06:50:23.812Z,1.20
2019-01-13T06:52:53.117Z,1.20
2019-01-13T06:55:22.545Z,1.20
2019-01-13T06:57:51.833Z,1.20
2019-01-13T07:00:25.891Z,1.20
2019-01-13T07:02:55.390Z,1.20
2019-01-13T07:05:24.747Z,1.20
2019-01-13T07:07:54.438Z,1.20
2019-01-13T07:10:23.993Z,1.20
2019-01-13T07:12:53.299Z,1.20
2019-01-13T07:15:22.596Z,1.20
2019-01-13T07:17:51.926Z,1.20
2019-01-13T07:20:22.520Z,1.20
2019-01-13T07:22:52.307Z,1.20
2019-01-13T07:25:21.656Z,1.20
2019-01-13T07:27:51.246Z,1.20
2019-01-13T07:30:25.352Z,1.20
2019-01-13T07:32:54.953Z,1.20
2019-01-13T07:35:24.798Z,1.20
2019-01-13T07:37:54.089Z,1.20
2019-01-13T07:40:24.652Z,1.20
2019-01-13T07:42:54.990Z,1.20
2019-01-13T07:45:26.028Z,1.20
2019-01-13T07:47:55.510Z,1.20
2019-01-13T07:50:24.865Z,1.20
2019-01-13T07:52:54.251Z,1.20
2019-01-13T07:55:24.563Z,1.30
2019-01-13T07:57:53.907Z,1.30
2019-01-13T08:00:31.448Z,1.30
2019-01-13T08:03:03.728Z,1.30
2019-01-13T08:05:33.131Z,1.30
2019-01-13T08:08:02.499Z,1.40
2019-01-13T08:10:31.808Z,1.40
2019-01-13T08:13:01.158Z,1.50
2019-01-13T08:15:30.544Z,1.50
2019-01-13T08:18:00.375Z,1.40
2019-01-13T08:20:34.232Z,1.40
2019-01-13T08:23:03.729Z,1.40
2019-01-13T08:25:33.139Z,1.40
2019-01-13T08:28:02.430Z,1.40
2019-01-13T08:30:31.812Z,1.40
2019-01-13T08:33:01.351Z,1.40
2019-01-13T08:35:30.724Z,1.40
2019-01-13T08:38:00.047Z,1.50
2019-01-13T08:40:29.613Z,1.50
2019-01-13T08:43:00.930Z,1.50
2019-01-13T08:45:30.349Z,1.50
2019-01-13T08:47:59.642Z,1.50
2019-01-13T08:50:29.115Z,1.60
2019-01-13T08:52:58.530Z,1.60
2019-01-13T08:55:29.533Z,1.70
2019-01-13T08:57:59.102Z,1.70
2019-01-13T09:00:33.373Z,1.80
2019-01-13T09:03:04.432Z,1.80
2019-01-13T09:05:33.911Z,1.90
2019-01-13T09:08:03.356Z,1.90
2019-01-13T09:10:33.078Z,1.90
2019-01-13T09:13:02.445Z,1.90
2019-01-13T09:15:31.872Z,2.00
2019-01-13T09:18:01.815Z,2.00
2019-01-13T09:20:32.248Z,2.00
2019-01-13T09:23:02.687Z,2.00
2019-01-13T09:25:36.807Z,2.00
2019-01-13T09:28:07.566Z,2.00
2019-01-13T09:30:36.982Z,2.00
2019-01-13T09:33:06.645Z,2.00
2019-01-13T09:35:36.489Z,2.00
2019-01-13T09:38:06.808Z,2.00
2019-01-13T09:40:37.420Z,1.90
2019-01-13T09:43:07.088Z,1.90
2019-01-13T09:45:36.476Z,1.90
2019-01-13T09:48:05.911Z,1.90
2019-01-13T09:50:35.297Z,1.80
2019-01-13T09:53:04.969Z,1.90
2019-01-13T09:55:34.503Z,1.90
2019-01-13T09:58:03.935Z,1.90
2019-01-13T10:00:37.602Z,1.90
2019-01-13T10:03:10.763Z,1.90
2019-01-13T10:05:40.131Z,1.90
2019-01-13T10:08:09.680Z,1.90
2019-01-13T10:10:39.136Z,1.90
2019-01-13T10:13:08.884Z,1.90
2019-01-13T10:15:38.444Z,1.90
2019-01-13T10:18:07.943Z,1.90
2019-01-13T10:20:37.283Z,1.90
2019-01-13T10:23:06.728Z,1.90
2019-01-13T10:25:36.099Z,1.90
2019-01-13T10:28:05.994Z,2.00
2019-01-13T10:30:35.283Z,2.00
2019-01-13T10:33:04.839Z,2.00
2019-01-13T10:35:34.191Z,2.00
2019-01-13T10:38:03.641Z,2.10
2019-01-13T10:40:33.391Z,2.10
2019-01-13T10:43:02.714Z,2.10
2019-01-13T10:45:32.090Z,2.10
2019-01-13T10:48:02.178Z,2.20
2019-01-13T10:50:32.873Z,2.30
2019-01-13T10:53:07.384Z,2.30
2019-01-13T10:55:37.510Z,2.20
2019-01-13T10:58:07.402Z,2.30
2019-01-13T11:00:37.566Z,2.30
2019-01-13T11:03:07.567Z,2.30
2019-01-13T11:05:37.624Z,2.40
2019-01-13T11:08:11.705Z,2.40
2019-01-13T11:10:38.667Z,2.40
2019-01-13T11:13:08.114Z,2.30
2019-01-13T11:15:37.782Z,2.30
2019-01-13T11:18:07.310Z,2.30
2019-01-13T11:20:38.761Z,2.30
2019-01-13T11:23:09.005Z,2.40
2019-01-13T11:25:38.436Z,2.30
2019-01-13T11:28:08.131Z,2.40
2019-01-13T11:30:37.868Z,2.40
2019-01-13T11:33:09.608Z,2.40
2019-01-13T11:35:38.852Z,2.40
2019-01-13T11:38:09.152Z,2.30
2019-01-13T11:40:38.611Z,2.30
2019-01-13T11:43:07.972Z,2.30
2019-01-13T11:45:37.360Z,2.30
2019-01-13T11:48:06.691Z,2.30
2019-01-13T11:50:36.047Z,2.30
2019-01-13T11:53:06.263Z,2.30
2019-01-13T11:55:35.766Z,2.30
2019-01-13T11:58:05.817Z,2.40
2019-01-13T12:00:46.655Z,2.40
2019-01-13T12:03:17.107Z,2.30
2019-01-13T12:05:46.645Z,2.40
2019-01-13T12:08:16.298Z,2.40
2019-01-13T12:10:45.629Z,2.40
2019-01-13T12:13:15.205Z,2.40
2019-01-13T12:15:44.666Z,2.40
2019-01-13T12:18:14.156Z,2.40
2019-01-13T12:20:43.622Z,2.40
2019-01-13T12:23:13.310Z,2.40
2019-01-13T12:25:52.402Z,2.40
2019-01-13T12:28:16.831Z,2.40
2019-01-13T12:30:46.160Z,2.40
2019-01-13T12:33:15.676Z,2.40
2019-01-13T12:35:45.113Z,2.40
2019-01-13T12:38:14.437Z,2.50
2019-01-13T12:40:43.853Z,2.50
2019-01-13T12:43:13.466Z,2.50
2019-01-13T12:45:42.859Z,2.50
2019-01-13T12:48:12.543Z,2.50
2019-01-13T12:50:41.887Z,2.50
2019-01-13T12:53:11.284Z,2.50
2019-01-13T12:55:40.641Z,2.50
2019-01-13T12:58:10.196Z,2.50
2019-01-13T13:00:40.770Z,2.50
2019-01-13T13:03:10.340Z,2.50
2019-01-13T13:05:39.869Z,2.50
2019-01-13T13:08:09.404Z,2.50
2019-01-13T13:10:50.135Z,2.50
2019-01-13T13:13:19.502Z,2.50
2019-01-13T13:15:49.175Z,2.60
2019-01-13T13:18:18.502Z,2.60
2019-01-13T13:20:47.923Z,2.60
2019-01-13T13:23:17.186Z,2.60
2019-01-13T13:25:46.716Z,2.60
2019-01-13T13:28:16.116Z,2.60
2019-01-13T13:30:45.487Z,2.60
2019-01-13T13:33:14.936Z,2.60
2019-01-13T13:35:44.354Z,2.60
2019-01-13T13:38:13.798Z,2.60
2019-01-13T13:40:43.257Z,2.60
2019-01-13T13:43:12.612Z,2.60
2019-01-13T13:45:42.154Z,2.60
2019-01-13T13:48:11.554Z,2.60
2019-01-13T13:50:41.026Z,2.60
2019-01-13T13:53:10.324Z,2.60
2019-01-13T13:55:39.869Z,2.60
2019-01-13T13:58:09.629Z,2.60
2019-01-13T14:00:39.987Z,2.60
2019-01-13T14:03:09.410Z,2.60
2019-01-13T14:05:38.916Z,2.60
2019-01-13T14:08:08.893Z,2.60
2019-01-13T14:10:43.323Z,2.60
2019-01-13T14:13:12.988Z,2.60
2019-01-13T14:15:44.103Z,2.60
2019-01-13T14:18:13.394Z,2.70
2019-01-13T14:20:43.000Z,2.70
2019-01-13T14:23:12.556Z,2.60
2019-01-13T14:25:41.878Z,2.60
2019-01-13T14:28:11.849Z,2.60
2019-01-13T14:30:41.274Z,2.60
2019-01-13T14:33:10.667Z,2.60
2019-01-13T14:35:40.140Z,2.60
2019-01-13T14:38:09.757Z,2.60
2019-01-13T14:40:39.110Z,2.70
2019-01-13T14:43:08.458Z,2.70
2019-01-13T14:45:37.892Z,2.60
2019-01-13T14:48:07.397Z,2.60
2019-01-13T14:50:37.143Z,2.70
2019-01-13T14:53:08.836Z,2.70
2019-01-13T14:55:38.160Z,2.70
2019-01-13T14:58:08.019Z,2.70
2019-01-13T15:00:37.619Z,2.70
2019-01-13T15:03:07.044Z,2.70
2019-01-13T15:05:36.607Z,2.70
2019-01-13T15:08:06.201Z,2.60
2019-01-13T15:10:35.604Z,2.70
2019-01-13T15:13:05.393Z,2.70
2019-01-13T15:15:35.027Z,2.60
2019-01-13T15:18:05.075Z,2.70
2019-01-13T15:20:34.419Z,2.70
2019-01-13T15:23:04.371Z,2.60
2019-01-13T15:25:33.841Z,2.60
2019-01-13T15:28:03.226Z,2.60
2019-01-13T15:30:37.686Z,2.60
2019-01-13T15:33:08.801Z,2.60
2019-01-13T15:35:38.435Z,2.50
2019-01-13T15:38:08.660Z,2.50
2019-01-13T15:40:38.016Z,2.50
2019-01-13T15:43:07.263Z,2.50
2019-01-13T15:45:36.598Z,2.50
2019-01-13T15:48:06.874Z,2.50
2019-01-13T15:50:36.160Z,2.50
2019-01-13T15:53:05.521Z,2.50
2019-01-13T15:55:34.988Z,2.50
2019-01-13T15:58:05.946Z,2.50
2019-01-13T16:00:36.780Z,2.40
2019-01-13T16:03:07.690Z,2.40
2019-01-13T16:05:37.021Z,2.40
2019-01-13T16:08:06.366Z,2.40
2019-01-13T16:10:35.653Z,2.40
2019-01-13T16:13:05.011Z,2.40
2019-01-13T16:15:34.647Z,2.40
2019-01-13T16:18:04.568Z,2.40
2019-01-13T16:20:41.591Z,2.30
2019-01-13T16:23:11.163Z,2.30
2019-01-13T16:25:41.143Z,2.40
2019-01-13T16:28:10.459Z,2.30
2019-01-13T16:30:39.902Z,2.30
2019-01-13T16:33:09.408Z,2.30
2019-01-13T16:35:38.977Z,2.30
2019-01-13T16:38:08.435Z,2.40
2019-01-13T16:40:37.960Z,2.30
2019-01-13T16:43:07.467Z,2.30
2019-01-13T16:45:36.882Z,2.40
2019-01-13T16:48:06.664Z,2.30
2019-01-13T16:50:36.678Z,2.30
2019-01-13T16:53:06.309Z,2.30
2019-01-13T16:55:36.168Z,2.30
2019-01-13T16:58:06.155Z,2.30
2019-01-13T17:00:35.787Z,2.30
2019-01-13T17:03:05.655Z,2.30
2019-01-13T17:05:35.231Z,2.30
2019-01-13T17:08:04.836Z,2.30
2019-01-13T17:10:34.495Z,2.30
2019-01-13T17:13:03.806Z,2.30
2019-01-13T17:15:35.144Z,2.30
2019-01-13T17:18:04.826Z,2.30
2019-01-13T17:20:34.331Z,2.20
2019-01-13T17:23:03.800Z,2.30
2019-01-13T17:25:33.395Z,2.30
2019-01-13T17:28:02.844Z,2.30
2019-01-13T17:30:34.118Z,2.30
2019-01-13T17:33:03.719Z,2.30
2019-01-13T17:35:33.173Z,2.30
2019-01-13T17:38:02.680Z,2.30
2019-01-13T17:40:32.144Z,2.30
2019-01-13T17:43:01.492Z,2.30
2019-01-13T17:45:32.299Z,2.30
2019-01-13T17:48:01.727Z,2.30
2019-01-13T17:50:31.264Z,2.20
2019-01-13T17:53:00.866Z,2.30
2019-01-13T17:55:31.091Z,2.30
2019-01-13T17:58:03.240Z,2.20
2019-01-13T18:00:39.158Z,2.30
2019-01-13T18:03:09.675Z,2.30
2019-01-13T18:05:39.143Z,2.30
2019-01-13T18:08:08.567Z,2.30
2019-01-13T18:10:38.066Z,2.20
2019-01-13T18:13:07.579Z,2.30
2019-01-13T18:15:37.075Z,2.30
2019-01-13T18:18:06.540Z,2.20
2019-01-13T18:20:36.078Z,2.20
2019-01-13T18:23:05.551Z,2.20
2019-01-13T18:25:34.862Z,2.30
2019-01-13T18:28:04.367Z,2.30
2019-01-13T18:30:33.775Z,2.20
2019-01-13T18:33:03.180Z,2.30
2019-01-13T18:35:32.511Z,2.30
2019-01-13T18:38:01.975Z,2.30
2019-01-13T18:40:31.387Z,2.30
2019-01-13T18:43:03.307Z,2.30
2019-01-13T18:45:32.771Z,2.30
2019-01-13T18:48:03.724Z,2.30
2019-01-13T18:50:33.009Z,2.30
2019-01-13T18:53:05.433Z,2.30
2019-01-13T18:55:34.825Z,2.20
2019-01-13T18:58:04.190Z,2.20
2019-01-13T19:00:36.517Z,2.20
2019-01-13T19:03:06.440Z,2.30
2019-01-13T19:05:35.850Z,2.30
2019-01-13T19:08:05.462Z,2.30
2019-01-13T19:11:14.287Z,2.20
2019-01-13T19:14:13.542Z,2.20
2019-01-13T19:16:54.014Z,2.20
2019-01-13T19:19:23.284Z,2.20
2019-01-13T19:21:52.631Z,2.20
2019-01-13T19:24:22.280Z,2.20
2019-01-13T19:26:51.681Z,2.20
2019-01-13T19:29:21.163Z,2.20
2019-01-13T19:31:51.420Z,2.10
2019-01-13T19:34:22.952Z,2.10
2019-01-13T19:36:52.363Z,2.10
2019-01-13T19:39:24.791Z,2.20
2019-01-13T19:41:54.258Z,2.10
2019-01-13T19:44:24.797Z,2.10
2019-01-13T19:46:56.635Z,2.10
2019-01-13T19:49:26.359Z,2.20
2019-01-13T19:51:55.771Z,2.20
2019-01-13T19:54:26.239Z,2.10
2019-01-13T19:56:55.602Z,2.20
2019-01-13T19:59:24.997Z,2.20
2019-01-13T20:01:55.364Z,2.20
2019-01-13T20:04:26.365Z,2.20
2019-01-13T20:06:55.999Z,2.20
2019-01-13T20:09:25.735Z,2.10
2019-01-13T20:11:55.549Z,2.10
2019-01-13T20:14:24.977Z,2.10
2019-01-13T20:16:54.618Z,2.10
2019-01-13T20:19:25.496Z,2.10
2019-01-13T20:21:54.925Z,2.10
2019-01-13T20:24:24.357Z,2.10
2019-01-13T20:26:53.916Z,2.10
2019-01-13T20:29:23.544Z,2.10
2019-01-13T20:31:52.899Z,2.10
2019-01-13T20:34:22.330Z,2.00
2019-01-13T20:36:51.835Z,2.10
2019-01-13T20:39:21.144Z,2.10
2019-01-13T20:41:50.678Z,2.00
2019-01-13T20:44:19.985Z,2.00
2019-01-13T20:46:49.333Z,2.00
2019-01-13T20:49:18.704Z,2.00
2019-01-13T20:51:47.991Z,2.00
2019-01-13T20:54:17.385Z,1.90
2019-01-13T20:56:46.988Z,2.00
2019-01-13T20:59:16.400Z,2.00
2019-01-13T21:01:45.994Z,1.90
2019-01-13T21:04:15.470Z,1.90
2019-01-13T21:06:45.275Z,1.90
2019-01-13T21:09:14.784Z,1.90
2019-01-13T21:11:44.690Z,1.90
2019-01-13T21:14:14.191Z,1.90
2019-01-13T21:17:34.529Z,1.90
2019-01-13T21:20:46.176Z,1.90
2019-01-13T21:23:16.046Z,1.90
2019-01-13T21:25:45.351Z,1.90
2019-01-13T21:28:15.043Z,1.90
2019-01-13T21:30:44.988Z,1.90
2019-01-13T21:33:14.512Z,1.90
2019-01-13T21:35:44.005Z,1.90
2019-01-13T21:38:13.490Z,1.90
2019-01-13T21:40:42.799Z,1.90
2019-01-13T21:43:12.169Z,1.90
2019-01-13T21:45:41.522Z,1.90
2019-01-13T21:48:12.643Z,1.90
2019-01-13T21:50:42.117Z,1.90
2019-01-13T21:53:11.611Z,1.90
2019-01-13T21:55:42.962Z,1.90
2019-01-13T21:58:12.066Z,1.90
2019-01-13T22:00:41.444Z,1.90
2019-01-13T22:03:10.816Z,1.90
2019-01-13T22:05:41.259Z,1.90
2019-01-13T22:08:10.922Z,1.90
2019-01-13T22:10:40.356Z,1.90
2019-01-13T22:13:09.661Z,1.90
2019-01-13T22:15:38.960Z,1.90
2019-01-13T22:18:09.488Z,1.90
2019-01-13T22:20:39.059Z,1.90
2019-01-13T22:23:08.594Z,1.90
2019-01-13T22:25:38.014Z,1.90
2019-01-13T22:28:07.671Z,1.90
2019-01-13T22:30:37.111Z,1.90
2019-01-13T22:33:06.600Z,1.90
2019-01-13T22:35:36.231Z,1.90
2019-01-13T22:38:05.583Z,1.90
2019-01-13T22:40:34.967Z,1.90
2019-01-13T22:43:04.364Z,1.90
2019-01-13T22:45:34.148Z,1.90
2019-01-13T22:48:03.570Z,1.90
2019-01-13T22:50:32.976Z,1.90
2019-01-13T22:53:02.382Z,1.90
2019-01-13T22:55:31.806Z,1.90
2019-01-13T22:58:01.307Z,1.90
2019-01-13T23:01:13.002Z,1.90
2019-01-13T23:03:42.383Z,1.90
2019-01-13T23:06:11.768Z,1.90
2019-01-13T23:08:41.158Z,1.90
2019-01-13T23:11:10.544Z,1.90
2019-01-13T23:13:39.911Z,1.90
2019-01-13T23:16:09.307Z,1.90
2019-01-13T23:18:38.836Z,1.80
2019-01-13T23:21:08.360Z,1.80
2019-01-13T23:23:37.991Z,1.80
2019-01-13T23:26:07.423Z,1.80
2019-01-13T23:28:36.806Z,1.80
2019-01-13T23:31:06.135Z,1.70
2019-01-13T23:33:35.423Z,1.70
2019-01-13T23:36:05.020Z,1.70
2019-01-13T23:38:34.337Z,1.60
2019-01-13T23:41:03.720Z,1.60
2019-01-13T23:43:33.089Z,1.50
2019-01-13T23:46:02.572Z,1.50
2019-01-13T23:48:32.102Z,1.50
2019-01-13T23:51:01.571Z,1.50
2019-01-13T23:53:30.925Z,1.50
2019-01-13T23:56:00.298Z,1.50
2019-01-13T23:58:30.735Z,1.50
